Lochgilphead, United Kingdom
Current Conditions -  °F | °C
As of 4:20 PM on Saturday 25 Oct 2014 (Local Time) from EGPI Reporting Station
Rain Showers Rain Showers  
Wind Chill: 52°   Ceiling: Unl
Heat Index: 52°   Visibility: 3mi
Dew Point: 48°   Wind: 32mph
Humidity: 88%   Direction: 240°WSW
Pressure: 29.65"   Gusts: 48mph
Location:  56.04°N, 5.43°W
Report Text: EGPI 251520Z AUTO 24028G42KT 200V270 4900 -SHRA SCT035/// 11/09 Q1004
Loading
Personal Weather Stations






























Interactive Weather Map
Tropical Storm Tracking
New forecast layout! Learn more

10-Day Weather Forecast

Advertisements
Track Severe Weather on mobile